Time;durP1;ratioP1;P1;durP2;ratioP2;P2;SDS_P1;SDS_P2;PMS_P1;PMS_P2;Temp;Humidity;BMP_temperature;BMP_pressure;BME280_temperature;BME280_humidity;BME280_pressure;Samples;Min_cycle;Max_cycle;Signal;HPM_P1;HPM_P2
2022/11/02 00:02:27;;;;;;;18.07;14.00;;;10.60;1.00;;;;;;6226436;23;20428;-81
2022/11/02 00:04:56;;;;;;;23.23;14.60;;;10.70;1.00;;;;;;6209773;23;20432;-84
2022/11/02 00:07:37;;;;;;;17.83;15.50;;;10.70;1.00;;;;;;6224640;23;20611;-86
2022/11/02 00:10:06;;;;;;;22.33;15.13;;;10.70;1.00;;;;;;6224672;23;20431;-84
2022/11/02 00:12:35;;;;;;;18.83;14.80;;;10.80;1.00;;;;;;6227498;23;20458;-83
2022/11/02 00:15:06;;;;;;;17.33;14.87;;;10.70;1.00;;;;;;6229446;23;20455;-85
2022/11/02 00:17:37;;;;;;;17.63;14.30;;;10.70;1.00;;;;;;6233274;23;20456;-83
2022/11/02 00:20:13;;;;;;;18.83;15.03;;;10.70;1.00;;;;;;6233547;23;20423;-80
2022/11/02 00:23:06;;;;;;;22.40;15.20;;;10.70;1.00;;;;;;6225670;23;20414;-81
2022/11/02 00:25:33;;;;;;;22.10;15.57;;;10.70;1.00;;;;;;6227539;23;20408;-83
2022/11/02 00:28:06;;;;;;;21.07;14.80;;;10.60;1.00;;;;;;6226401;23;20512;-85
2022/11/02 00:30:37;;;;;;;18.87;14.50;;;10.60;1.00;;;;;;6234292;23;20451;-84
2022/11/02 00:33:10;;;;;;;17.60;14.13;;;10.60;1.00;;;;;;6226857;23;20957;-85
2022/11/02 00:35:40;;;;;;;16.30;13.93;;;10.50;1.00;;;;;;6224997;23;20415;-82
2022/11/02 00:38:08;;;;;;;17.03;13.33;;;10.50;1.00;;;;;;6223023;23;20875;-81
2022/11/02 00:40:37;;;;;;;18.30;13.37;;;10.50;1.00;;;;;;6225000;23;20501;-82
2022/11/02 00:43:05;;;;;;;19.87;13.87;;;10.50;1.00;;;;;;6226587;23;20418;-85
2022/11/02 00:45:32;;;;;;;15.07;12.17;;;10.50;1.00;;;;;;6225705;23;20482;-82
2022/11/02 00:48:07;;;;;;;18.70;12.77;;;10.50;1.00;;;;;;6222048;23;20419;-83
2022/11/02 00:50:37;;;;;;;17.20;13.50;;;10.50;1.00;;;;;;6223955;23;20514;-85
2022/11/02 00:53:06;;;;;;;13.87;11.83;;;10.50;1.00;;;;;;6222655;23;20962;-85
2022/11/02 00:55:35;;;;;;;14.73;13.23;;;10.50;1.00;;;;;;6234907;23;20427;-86
2022/11/02 00:58:05;;;;;;;18.93;13.83;;;10.50;1.00;;;;;;6230231;23;20403;-82
2022/11/02 01:00:36;;;;;;;14.07;11.90;;;10.50;1.00;;;;;;6223636;23;20398;-83
2022/11/02 01:03:06;;;;;;;15.80;11.67;;;10.50;1.00;;;;;;6209898;23;20485;-81
2022/11/02 01:05:36;;;;;;;13.93;12.33;;;10.50;1.00;;;;;;6230089;23;20447;-85
2022/11/02 01:08:06;;;;;;;14.33;12.90;;;10.40;1.00;;;;;;6226982;23;21249;-81
2022/11/02 01:10:34;;;;;;;14.93;13.17;;;10.40;1.00;;;;;;6231900;23;20426;-84
2022/11/02 01:13:06;;;;;;;15.90;12.43;;;10.30;1.00;;;;;;6225977;23;20411;-83
2022/11/02 01:15:38;;;;;;;14.40;13.00;;;10.30;1.00;;;;;;6225539;23;20411;-86
2022/11/02 01:18:08;;;;;;;14.20;12.53;;;10.30;1.00;;;;;;6220732;23;20483;-79
2022/11/02 01:20:37;;;;;;;15.43;12.13;;;10.20;1.00;;;;;;6225074;23;20444;-84
2022/11/02 01:23:07;;;;;;;12.70;10.60;;;10.20;1.00;;;;;;6228162;23;20432;-84
2022/11/02 01:25:34;;;;;;;14.10;11.10;;;10.10;1.00;;;;;;6215981;23;20446;-85
2022/11/02 01:28:05;;;;;;;13.47;12.07;;;10.20;1.00;;;;;;6197506;23;20458;-84
2022/11/02 01:30:34;;;;;;;15.53;11.70;;;10.10;1.00;;;;;;6201381;23;20415;-81
2022/11/02 01:33:05;;;;;;;16.53;11.63;;;10.20;1.00;;;;;;6221479;23;20436;-81
2022/11/02 01:38:24;;;;;;;13.43;10.87;;;10.10;1.00;;;;;;6223846;23;20395;-85
2022/11/02 01:41:16;;;;;;;14.23;10.70;;;10.10;1.00;;;;;;6232281;23;20418;-84
2022/11/02 01:43:59;;;;;;;12.80;9.90;;;10.10;1.00;;;;;;6231757;23;20441;-84
2022/11/02 01:49:27;;;;;;;13.53;10.60;;;10.00;1.00;;;;;;6231374;23;20402;-83
2022/11/02 01:52:06;;;;;;;11.90;10.63;;;9.90;1.00;;;;;;6227446;23;20383;-84
2022/11/02 01:55:01;;;;;;;14.20;10.63;;;9.80;1.00;;;;;;6234079;23;20416;-82
2022/11/02 01:57:34;;;;;;;14.27;11.40;;;9.80;1.00;;;;;;6230201;23;20411;-80
2022/11/02 02:00:18;;;;;;;13.30;9.60;;;9.70;1.00;;;;;;6231177;23;20413;-86
2022/11/02 02:05:28;;;;;;;13.67;10.87;;;9.70;1.00;;;;;;6193974;23;20428;-82
2022/11/02 02:07:58;;;;;;;13.67;10.40;;;9.60;1.00;;;;;;6191357;23;20461;-85
2022/11/02 02:10:36;;;;;;;12.33;9.80;;;9.60;1.00;;;;;;6199489;23;20868;-85
2022/11/02 02:13:07;;;;;;;12.60;9.67;;;9.60;1.00;;;;;;6194928;23;20477;-81
2022/11/02 02:15:42;;;;;;;11.47;9.63;;;9.60;1.00;;;;;;6196944;23;20519;-83
2022/11/02 02:18:25;;;;;;;10.13;7.97;;;9.50;1.00;;;;;;6197023;23;21090;-83
2022/11/02 02:21:23;;;;;;;10.33;8.53;;;9.50;1.00;;;;;;6198503;23;20412;-83
2022/11/02 02:24:26;;;;;;;10.47;8.17;;;9.50;1.00;;;;;;6195186;23;20927;-85
2022/11/02 02:27:28;;;;;;;10.40;8.27;;;9.50;1.00;;;;;;6195508;23;20419;-85
2022/11/02 02:30:17;;;;;;;11.30;8.50;;;9.50;1.00;;;;;;6184179;23;20441;-82
2022/11/02 02:32:55;;;;;;;10.30;8.93;;;9.50;1.00;;;;;;6175316;23;20434;-80
2022/11/02 02:35:34;;;;;;;12.37;9.30;;;9.40;1.00;;;;;;6158365;23;20474;-84
2022/11/02 02:38:05;;;;;;;9.67;7.70;;;9.40;1.00;;;;;;6195177;23;20448;-80
2022/11/02 02:40:45;;;;;;;11.57;8.03;;;9.40;1.00;;;;;;6193115;23;20404;-82
2022/11/02 02:43:20;;;;;;;9.50;6.93;;;9.40;1.00;;;;;;6194122;23;20394;-81
2022/11/02 02:45:55;;;;;;;11.33;8.10;;;9.40;1.00;;;;;;6196858;23;20549;-85
2022/11/02 02:48:26;;;;;;;10.90;7.10;;;9.40;1.00;;;;;;6202466;23;20456;-84
2022/11/02 02:51:02;;;;;;;10.18;7.55;;;9.40;1.00;;;;;;6198455;23;20511;-84
2022/11/02 02:53:38;;;;;;;10.30;7.73;;;9.40;1.00;;;;;;6196869;23;20264;-84
2022/11/02 02:56:09;;;;;;;9.90;7.70;;;9.40;1.00;;;;;;6193387;23;20428;-80
2022/11/02 02:58:43;;;;;;;10.77;8.13;;;9.40;1.00;;;;;;6187809;23;20442;-81
2022/11/02 03:01:16;;;;;;;10.90;7.27;;;9.40;1.00;;;;;;6188517;23;20428;-81
2022/11/02 03:03:47;;;;;;;10.50;7.97;;;9.40;1.00;;;;;;6196330;23;20419;-80
2022/11/02 03:06:22;;;;;;;9.53;6.97;;;9.40;1.00;;;;;;6217625;22;20453;-81
2022/11/02 03:08:58;;;;;;;9.80;7.07;;;9.40;1.00;;;;;;6218039;22;20991;-81
2022/11/02 03:11:28;;;;;;;9.70;6.80;;;9.40;1.00;;;;;;6219436;22;20906;-83
2022/11/02 03:14:06;;;;;;;9.40;7.20;;;9.40;1.00;;;;;;6218730;22;20427;-81
2022/11/02 03:16:56;;;;;;;9.10;6.60;;;9.40;1.00;;;;;;6219343;22;20473;-80
2022/11/02 03:19:31;;;;;;;9.17;6.70;;;9.40;1.00;;;;;;6217067;22;20503;-81
2022/11/02 03:22:03;;;;;;;12.23;7.07;;;9.40;1.00;;;;;;6217742;22;20418;-80
2022/11/02 03:24:37;;;;;;;8.30;6.03;;;9.30;1.00;;;;;;6219042;22;20435;-81
2022/11/02 03:27:17;;;;;;;9.13;6.60;;;9.20;1.00;;;;;;6217710;22;20443;-81
2022/11/02 03:29:53;;;;;;;7.60;6.43;;;9.20;1.00;;;;;;6219243;22;20426;-80
2022/11/02 03:32:30;;;;;;;8.17;6.00;;;9.20;1.00;;;;;;6218519;22;21065;-81
2022/11/02 03:34:58;;;;;;;8.43;6.67;;;9.20;1.00;;;;;;6218020;22;20415;-80
2022/11/02 03:37:29;;;;;;;9.70;6.13;;;9.20;1.00;;;;;;6219620;22;20419;-80
2022/11/02 03:40:04;;;;;;;7.90;5.63;;;9.10;1.00;;;;;;6219680;22;20441;-79
2022/11/02 03:42:35;;;;;;;10.40;6.23;;;9.10;1.00;;;;;;6218679;22;20418;-81
2022/11/02 03:45:06;;;;;;;8.90;6.50;;;9.10;1.00;;;;;;6220005;22;20417;-79
2022/11/02 03:47:39;;;;;;;9.80;5.63;;;9.10;1.00;;;;;;6219841;22;21024;-80
2022/11/02 03:50:09;;;;;;;9.63;6.20;;;9.00;1.00;;;;;;6219176;22;20565;-81
2022/11/02 03:52:40;;;;;;;11.47;5.43;;;9.00;1.00;;;;;;6219504;22;20418;-81
2022/11/02 03:55:11;;;;;;;8.67;6.10;;;9.00;1.00;;;;;;6219603;22;20429;-80
2022/11/02 03:57:44;;;;;;;10.10;5.40;;;9.00;1.00;;;;;;6219701;22;20427;-80
2022/11/02 04:00:16;;;;;;;8.97;5.37;;;9.00;1.00;;;;;;6220207;22;20401;-80
2022/11/02 04:02:47;;;;;;;9.13;5.07;;;9.10;1.00;;;;;;6220053;22;20488;-81
2022/11/02 04:05:17;;;;;;;9.23;6.60;;;9.10;1.00;;;;;;6219109;22;20418;-80
2022/11/02 04:10:33;;;;;;;9.40;5.35;;;9.00;1.00;;;;;;6220390;22;20434;-79
2022/11/02 04:15:45;;;;;;;8.77;4.50;;;8.90;1.00;;;;;;6220593;22;20209;-80
2022/11/02 04:21:05;;;;;;;8.80;4.75;;;8.90;1.00;;;;;;6220621;22;20437;-79
2022/11/02 04:26:17;;;;;;;11.23;6.15;;;8.80;1.00;;;;;;6220442;22;21037;-80
2022/11/02 04:28:44;;;;;;;10.02;4.38;;;8.80;1.00;;;;;;6221968;22;20256;-80
2022/11/02 04:31:12;;;;;;;7.50;4.30;;;8.80;1.00;;;;;;6220679;22;20221;-80
2022/11/02 04:33:40;;;;;;;7.73;4.47;;;8.70;1.00;;;;;;6220639;22;20418;-80
2022/11/02 04:36:08;;;;;;;8.23;4.50;;;8.70;1.00;;;;;;6221247;22;20391;-79
2022/11/02 04:38:41;;;;;;;11.67;4.90;;;8.70;1.00;;;;;;6220348;22;20413;-79
2022/11/02 04:43:54;;;;;;;6.40;4.50;;;8.70;1.00;;;;;;6219036;22;20300;-80
2022/11/02 04:46:22;;;;;;;7.57;4.13;;;8.70;1.00;;;;;;6220796;22;21181;-81
2022/11/02 04:48:58;;;;;;;7.00;3.90;;;8.60;1.00;;;;;;6219122;22;20445;-81
2022/11/02 04:51:26;;;;;;;8.93;4.33;;;8.60;1.00;;;;;;6220494;22;20426;-82
2022/11/02 04:53:57;;;;;;;9.25;4.35;;;8.70;1.00;;;;;;6219242;22;20509;-80
2022/11/02 04:56:24;;;;;;;7.32;4.55;;;8.60;1.00;;;;;;6220357;22;20210;-80
2022/11/02 04:58:56;;;;;;;10.70;4.33;;;8.70;1.00;;;;;;6218194;22;20215;-81
2022/11/02 05:01:30;;;;;;;9.73;4.40;;;8.70;1.00;;;;;;6216793;22;20853;-80
2022/11/02 05:03:58;;;;;;;8.52;3.95;;;8.70;1.00;;;;;;6217022;22;20219;-81
2022/11/02 05:06:26;;;;;;;9.00;3.90;;;8.70;1.00;;;;;;6218929;22;20828;-80
2022/11/02 05:08:55;;;;;;;9.63;4.87;;;8.70;1.00;;;;;;6219945;22;20457;-81
2022/11/02 05:11:22;;;;;;;8.53;4.03;;;8.70;1.00;;;;;;6221839;22;20489;-83
2022/11/02 05:13:49;;;;;;;10.32;4.55;;;8.70;1.00;;;;;;6222128;22;20461;-80
2022/11/02 05:16:17;;;;;;;9.20;5.55;;;8.70;1.00;;;;;;6221714;22;20636;-82
2022/11/02 05:18:44;;;;;;;9.27;4.30;;;8.70;1.00;;;;;;6222420;22;20222;-81
2022/11/02 05:21:18;;;;;;;6.40;4.27;;;8.70;1.00;;;;;;6220852;22;20425;-80
2022/11/02 05:23:45;;;;;;;8.30;3.85;;;8.70;1.00;;;;;;6196340;23;20425;-81
2022/11/02 05:26:12;;;;;;;9.10;4.50;;;8.80;1.00;;;;;;6220724;22;20999;-81
2022/11/02 05:28:39;;;;;;;7.87;4.33;;;8.80;1.00;;;;;;6221982;22;20499;-80
2022/11/02 05:31:07;;;;;;;11.43;4.90;;;8.80;1.00;;;;;;6220465;22;20449;-80
2022/11/02 05:33:39;;;;;;;12.02;5.40;;;8.80;1.00;;;;;;6193830;23;20966;-80
2022/11/02 05:36:07;;;;;;;8.37;5.07;;;8.80;1.00;;;;;;6220507;22;20306;-80
2022/11/02 05:38:37;;;;;;;10.90;4.45;;;8.70;1.00;;;;;;6216267;22;20461;-80
2022/11/02 05:41:05;;;;;;;7.77;4.73;;;8.80;1.00;;;;;;6235180;22;20229;-80
2022/11/02 05:43:36;;;;;;;8.48;4.68;;;8.80;1.00;;;;;;6221724;22;20423;-80
2022/11/02 05:46:07;;;;;;;11.68;4.07;;;8.70;1.00;;;;;;6220104;22;20219;-81
2022/11/02 05:48:36;;;;;;;6.80;3.40;;;8.70;1.00;;;;;;6220605;22;20282;-80
2022/11/02 05:51:05;;;;;;;8.18;4.47;;;8.60;1.00;;;;;;6219408;22;20219;-80
2022/11/02 05:53:38;;;;;;;7.10;4.07;;;8.60;1.00;;;;;;6221712;22;20210;-81
2022/11/02 05:56:08;;;;;;;7.90;3.63;;;8.50;1.00;;;;;;6221219;22;20218;-81
2022/11/02 05:58:38;;;;;;;8.60;4.37;;;8.60;1.00;;;;;;6221504;22;20301;-82
2022/11/02 06:01:07;;;;;;;6.63;3.65;;;8.60;1.00;;;;;;6222039;22;20451;-82
2022/11/02 06:03:38;;;;;;;6.78;4.40;;;8.60;1.00;;;;;;6219068;22;20220;-80
2022/11/02 06:06:09;;;;;;;9.60;3.33;;;8.60;1.00;;;;;;6222873;22;20239;-80
2022/11/02 06:08:39;;;;;;;8.57;3.88;;;8.60;1.00;;;;;;6222099;22;20423;-81
2022/11/02 06:11:09;;;;;;;11.43;4.45;;;8.60;1.00;;;;;;6222577;22;21007;-79
2022/11/02 06:13:39;;;;;;;7.20;3.83;;;8.60;1.00;;;;;;6221959;22;20236;-81
2022/11/02 06:16:08;;;;;;;8.67;4.30;;;8.60;1.00;;;;;;6220687;22;20419;-81
2022/11/02 06:18:37;;;;;;;9.70;4.00;;;8.60;1.00;;;;;;6224416;22;20434;-81
2022/11/02 06:21:04;;;;;;;7.68;3.70;;;8.60;1.00;;;;;;6221858;22;20397;-80
2022/11/02 06:23:37;;;;;;;8.10;3.35;;;8.60;1.00;;;;;;6224421;22;20261;-80
2022/11/02 06:26:28;;;;;;;7.07;2.90;;;8.60;1.00;;;;;;6222024;22;21026;-80
2022/11/02 06:28:58;;;;;;;8.23;3.63;;;8.60;1.00;;;;;;6222784;22;20432;-80
2022/11/02 06:31:28;;;;;;;6.25;4.00;;;8.60;1.00;;;;;;6224329;22;20523;-79
2022/11/02 06:33:57;;;;;;;8.85;3.58;;;8.60;1.00;;;;;;6221306;22;20302;-80
2022/11/02 06:36:27;;;;;;;7.85;4.20;;;8.70;1.00;;;;;;6222672;22;20226;-79
2022/11/02 06:38:57;;;;;;;7.67;3.77;;;8.70;1.00;;;;;;6220108;22;20297;-79
2022/11/02 06:41:27;;;;;;;8.57;3.60;;;8.80;1.00;;;;;;6223466;22;21191;-80
2022/11/02 06:43:57;;;;;;;8.02;3.65;;;8.80;1.00;;;;;;6222214;22;20441;-79
2022/11/02 06:46:25;;;;;;;7.55;3.40;;;8.90;1.00;;;;;;6222257;22;20563;-79
2022/11/02 06:48:52;;;;;;;7.30;3.50;;;8.90;1.00;;;;;;6221207;22;20225;-81
2022/11/02 06:51:19;;;;;;;9.93;4.97;;;9.00;1.00;;;;;;6221288;22;20860;-80
2022/11/02 06:53:45;;;;;;;8.93;4.20;;;9.00;1.00;;;;;;6222349;22;20428;-80
2022/11/02 06:56:12;;;;;;;7.43;3.63;;;9.10;1.00;;;;;;6221332;22;20288;-81
2022/11/02 06:58:40;;;;;;;6.63;3.80;;;9.20;1.00;;;;;;6220866;22;20798;-81
2022/11/02 07:01:08;;;;;;;10.27;3.83;;;9.20;1.00;;;;;;6219745;22;20227;-84
2022/11/02 07:03:37;;;;;;;11.15;3.92;;;9.30;1.00;;;;;;6219296;22;20390;-80
2022/11/02 07:06:06;;;;;;;7.05;3.72;;;9.40;1.00;;;;;;6219468;22;20211;-78
2022/11/02 07:08:38;;;;;;;11.13;4.23;;;9.40;1.00;;;;;;6219682;22;20250;-81
2022/11/02 07:11:05;;;;;;;11.33;4.97;;;9.50;1.00;;;;;;6218605;22;20449;-79
2022/11/02 07:13:32;;;;;;;9.93;4.73;;;9.60;1.00;;;;;;6223648;22;21273;-80
2022/11/02 07:16:06;;;;;;;9.95;3.85;;;9.60;1.00;;;;;;6219524;22;20985;-81
2022/11/02 07:18:50;;;;;;;;;;;;;;;;;;;;;
2022/11/02 07:21:17;;;;;;;8.90;3.50;;;9.80;1.00;;;;;;6217113;22;50900;-80
2022/11/02 07:23:44;;;;;;;6.97;3.97;;;9.80;1.00;;;;;;6220615;22;20411;-80
2022/11/02 07:26:12;;;;;;;6.53;3.50;;;9.70;1.00;;;;;;6220085;22;21208;-79
2022/11/02 07:28:39;;;;;;;7.70;3.70;;;9.70;1.00;;;;;;6219511;22;20883;-80
2022/11/02 07:31:09;;;;;;;9.10;3.67;;;9.90;1.00;;;;;;6220636;22;20458;-82
2022/11/02 07:33:39;;;;;;;10.07;3.83;;;10.00;1.00;;;;;;6218158;22;20419;-81
2022/11/02 07:36:08;;;;;;;8.03;3.30;;;10.00;1.00;;;;;;6218535;22;20415;-81
2022/11/02 07:38:35;;;;;;;9.10;4.00;;;10.10;1.00;;;;;;6222753;22;20420;-80
2022/11/02 07:41:07;;;;;;;10.20;4.33;;;10.20;1.00;;;;;;6219513;22;20534;-81
2022/11/02 07:43:37;;;;;;;10.63;3.47;;;10.30;1.00;;;;;;6220884;22;21025;-80
2022/11/02 07:46:05;;;;;;;13.50;4.57;;;10.50;1.00;;;;;;6219131;22;20411;-81
2022/11/02 07:48:36;;;;;;;11.63;4.20;;;10.60;1.00;;;;;;6219937;22;21154;-81
2022/11/02 07:51:10;;;;;;;6.20;2.97;;;10.80;1.00;;;;;;6220257;22;20426;-84
2022/11/02 07:53:40;;;;;;;7.10;4.00;;;11.00;1.00;;;;;;6221614;22;20413;-85
2022/11/02 07:56:07;;;;;;;11.33;4.40;;;11.30;1.00;;;;;;6229248;22;20466;-82
2022/11/02 07:58:39;;;;;;;7.73;3.37;;;11.50;1.00;;;;;;6218810;22;20423;-81
2022/11/02 08:01:06;;;;;;;7.20;2.80;;;11.80;1.00;;;;;;6219458;22;20443;-82
2022/11/02 08:03:37;;;;;;;7.93;3.27;;;12.10;1.00;;;;;;6217753;22;20423;-79
2022/11/02 08:06:05;;;;;;;10.67;3.70;;;12.40;1.00;;;;;;6217300;22;20879;-82
2022/11/02 08:08:32;;;;;;;8.53;3.67;;;12.60;1.00;;;;;;6219849;22;20941;-80
2022/11/02 08:11:10;;;;;;;6.70;2.70;;;12.90;1.00;;;;;;6218247;22;20426;-80
2022/11/02 08:13:39;;;;;;;9.10;4.90;;;13.20;1.00;;;;;;6222211;23;20403;-81
2022/11/02 08:16:07;;;;;;;7.93;2.77;;;13.50;1.00;;;;;;6218534;22;20898;-80
2022/11/02 08:18:37;;;;;;;13.60;3.00;;;13.50;1.00;;;;;;6221385;22;20525;-79
2022/11/02 08:21:06;;;;;;;8.63;3.07;;;13.40;1.00;;;;;;6218435;22;20444;-80
2022/11/02 08:23:33;;;;;;;7.93;2.50;;;13.20;1.00;;;;;;6219645;22;20416;-80
2022/11/02 08:26:11;;;;;;;9.80;2.83;;;13.20;1.00;;;;;;6219585;22;20420;-80
2022/11/02 08:28:39;;;;;;;7.03;2.97;;;13.10;1.00;;;;;;6219809;22;20911;-80
2022/11/02 08:31:12;;;;;;;8.03;4.10;;;13.30;1.00;;;;;;6219552;22;20426;-80
2022/11/02 08:33:41;;;;;;;7.30;2.80;;;13.60;1.00;;;;;;6216438;22;20447;-81
2022/11/02 08:36:10;;;;;;;10.00;3.10;;;13.70;1.00;;;;;;6214540;22;20420;-80
2022/11/02 08:38:43;;;;;;;7.13;3.50;;;13.70;1.00;;;;;;6216244;22;20426;-79
2022/11/02 08:41:10;;;;;;;9.30;3.27;;;13.70;1.00;;;;;;6217470;22;20418;-79
2022/11/02 08:43:38;;;;;;;8.30;3.50;;;13.70;1.00;;;;;;6221205;22;20502;-80
2022/11/02 08:46:08;;;;;;;9.03;2.40;;;13.80;1.00;;;;;;6221122;22;20442;-78
2022/11/02 08:48:35;;;;;;;8.97;3.70;;;13.70;1.00;;;;;;6220823;22;20423;-79
2022/11/02 08:51:07;;;;;;;8.33;3.40;;;13.70;1.00;;;;;;6217060;22;20442;-79
2022/11/02 08:53:40;;;;;;;8.37;2.97;;;13.50;1.00;;;;;;6219773;22;20451;-79
2022/11/02 08:56:07;;;;;;;8.37;3.13;;;13.50;1.00;;;;;;6215285;22;21446;-82
2022/11/02 08:58:35;;;;;;;7.60;2.70;;;13.50;1.00;;;;;;6216281;22;20515;-77
2022/11/02 09:01:02;;;;;;;10.80;4.57;;;13.40;1.00;;;;;;6217114;22;21231;-81
2022/11/02 09:03:29;;;;;;;8.43;2.73;;;13.30;1.00;;;;;;6219244;22;21097;-81
2022/11/02 09:06:02;;;;;;;9.73;3.93;;;13.30;1.00;;;;;;6220080;22;20496;-80
2022/11/02 09:08:35;;;;;;;7.70;2.53;;;13.40;1.00;;;;;;6220962;22;20937;-81
2022/11/02 09:11:05;;;;;;;9.70;3.47;;;13.30;1.00;;;;;;6221864;22;20437;-85
2022/11/02 09:13:37;;;;;;;8.77;2.67;;;13.20;1.00;;;;;;6222737;22;20429;-85
2022/11/02 09:16:09;;;;;;;7.37;2.80;;;13.30;1.00;;;;;;6222036;22;20434;-82
2022/11/02 09:18:37;;;;;;;9.70;2.97;;;13.40;1.00;;;;;;6217888;22;20962;-81
2022/11/02 09:21:05;;;;;;;7.10;3.00;;;14.40;1.00;;;;;;6218362;22;21171;-84
2022/11/02 09:24:17;;;;;;;7.23;2.83;;;15.20;1.00;;;;;;6221122;22;20414;-85
2022/11/02 09:26:49;;;;;;;10.30;3.20;;;15.60;1.00;;;;;;6197229;22;20492;-85
2022/11/02 09:29:19;;;;;;;6.17;2.10;;;15.30;1.00;;;;;;6219868;22;21064;-85
2022/11/02 09:31:49;;;;;;;9.73;2.40;;;15.00;1.00;;;;;;6221747;22;20435;-85
2022/11/02 09:34:19;;;;;;;8.40;2.87;;;14.60;1.00;;;;;;6221227;22;20519;-83
2022/11/02 09:36:50;;;;;;;8.63;3.30;;;14.50;1.00;;;;;;6222447;22;20416;-86
2022/11/02 09:39:22;;;;;;;8.50;3.50;;;14.70;1.00;;;;;;6181249;23;20467;-87
2022/11/02 09:42:16;;;;;;;7.90;2.90;;;15.00;1.00;;;;;;6196181;23;20500;-85
2022/11/02 09:45:07;;;;;;;;;;;;;;;;;;;;;
2022/11/02 09:47:48;;;;;;;8.33;3.60;;;15.70;1.00;;;;;;6206568;22;50325;-83
2022/11/02 09:50:26;;;;;;;8.87;2.40;;;15.80;1.00;;;;;;6233074;22;20422;-87
2022/11/02 09:52:59;;;;;;;8.77;2.63;;;16.20;1.00;;;;;;6219425;22;20402;-85
2022/11/02 10:01:46;;;;;;;7.73;2.27;;;15.80;1.00;;;;;;6195650;22;20486;-84
2022/11/02 10:04:49;;;;;;;9.53;2.67;;;15.90;1.00;;;;;;6235558;22;20419;-85
2022/11/02 10:07:40;;;;;;;9.13;2.53;;;15.80;1.00;;;;;;6223523;22;21040;-85
2022/11/02 10:10:27;;;;;;;9.80;2.40;;;15.90;1.00;;;;;;6221682;22;20453;-85
2022/11/02 10:13:33;;;;;;;7.73;2.80;;;16.30;1.00;;;;;;6221943;22;20415;-84
2022/11/02 10:16:06;;;;;;;8.90;2.77;;;17.10;1.00;;;;;;6221290;22;20457;-84
2022/11/02 10:18:40;;;;;;;6.97;2.30;;;17.70;1.00;;;;;;6222849;22;20427;-86
2022/11/02 10:21:12;;;;;;;7.50;2.30;;;17.90;1.00;;;;;;6222423;22;20454;-86
2022/11/02 10:23:49;;;;;;;8.70;3.00;;;17.70;1.00;;;;;;6224549;22;20444;-85
2022/11/02 10:26:27;;;;;;;8.00;2.77;;;17.50;1.00;;;;;;6220776;22;20546;-86
2022/11/02 10:29:00;;;;;;;5.83;2.23;;;17.40;1.00;;;;;;6222719;22;20416;-86
2022/11/02 10:31:39;;;;;;;8.63;2.60;;;17.70;1.00;;;;;;6222469;22;20519;-87
2022/11/02 10:34:27;;;;;;;9.87;2.60;;;17.80;1.00;;;;;;6221566;22;20432;-86
2022/11/02 10:37:09;;;;;;;6.50;2.70;;;18.20;1.00;;;;;;6223360;22;20485;-86
2022/11/02 10:39:58;;;;;;;8.40;2.07;;;18.20;1.00;;;;;;6227033;22;21252;-85
2022/11/02 10:42:49;;;;;;;11.53;2.23;;;18.30;1.00;;;;;;6221987;22;20498;-84
2022/11/02 10:48:58;;;;;;;6.80;2.20;;;18.30;1.00;;;;;;6219059;22;20452;-85
2022/11/02 10:51:39;;;;;;;8.00;2.27;;;18.60;1.00;;;;;;6217225;22;20903;-85
2022/11/02 10:57:20;;;;;;;9.70;3.07;;;19.90;1.00;;;;;;6218022;22;20471;-86
2022/11/02 11:00:21;;;;;;;8.57;2.10;;;20.30;1.00;;;;;;6222358;22;20852;-86
2022/11/02 11:03:16;;;;;;;10.27;2.53;;;20.20;1.00;;;;;;6212262;22;20416;-87
2022/11/02 11:05:59;;;;;;;11.23;2.67;;;20.50;1.00;;;;;;6224622;22;20440;-88
2022/11/02 11:08:52;;;;;;;13.40;4.17;;;21.30;1.00;;;;;;6215353;22;20422;-87
2022/11/02 11:11:38;;;;;;;9.50;2.10;;;21.20;1.00;;;;;;6215313;22;20432;-85
2022/11/02 11:14:30;;;;;;;;;;;;;;;;;;;;;
2022/11/02 11:17:09;;;;;;;9.57;3.00;;;21.00;1.00;;;;;;6216423;22;39874;-88
2022/11/02 11:19:50;;;;;;;9.40;2.53;;;20.90;1.00;;;;;;6225686;22;20420;-85
2022/11/02 11:22:31;;;;;;;9.50;2.33;;;20.60;1.00;;;;;;6226143;22;20418;-87
2022/11/02 11:25:23;;;;;;;13.30;3.20;;;19.90;1.00;;;;;;6227808;22;20455;-85
2022/11/02 11:27:55;;;;;;;11.87;3.20;;;18.90;1.00;;;;;;6227542;22;20504;-85
2022/11/02 11:30:32;;;;;;;11.23;2.67;;;18.70;1.00;;;;;;6212619;22;20873;-85
2022/11/02 11:33:10;;;;;;;9.80;2.63;;;19.00;1.00;;;;;;6227209;22;21210;-87
2022/11/02 11:35:50;;;;;;;;;;;;;;;;;;;;;
2022/11/02 11:41:18;;;;;;;10.90;2.83;;;17.80;1.00;;;;;;6227550;22;20422;-86
2022/11/02 11:43:50;;;;;;;8.07;2.23;;;17.20;1.00;;;;;;6229219;22;20439;-86
2022/11/02 11:46:28;;;;;;;11.43;2.50;;;16.90;1.00;;;;;;6226346;22;20428;-87
2022/11/02 11:49:09;;;;;;;9.80;2.50;;;17.10;1.00;;;;;;6225827;22;20427;-87
2022/11/02 11:51:59;;;;;;;10.27;2.67;;;17.50;1.00;;;;;;6226393;22;20438;-85
2022/11/02 11:54:37;;;;;;;7.00;1.80;;;17.40;1.00;;;;;;6224582;22;20404;-87
2022/11/02 11:57:30;;;;;;;10.07;1.80;;;17.10;1.00;;;;;;6224077;22;20434;-87
2022/11/02 12:00:03;;;;;;;9.00;2.43;;;16.80;1.00;;;;;;6223390;22;20502;-85
2022/11/02 12:02:40;;;;;;;6.93;2.00;;;16.50;1.00;;;;;;6225724;22;20425;-87
2022/11/02 12:05:28;;;;;;;8.50;2.50;;;16.50;1.00;;;;;;6223301;22;20907;-86
2022/11/02 12:11:57;;;;;;;8.40;2.50;;;16.50;1.00;;;;;;6029097;23;21012;-87
2022/11/02 12:15:00;;;;;;;10.67;2.63;;;16.30;1.00;;;;;;6062736;23;20454;-85
2022/11/02 12:17:59;;;;;;;14.90;3.57;;;16.20;1.00;;;;;;6102117;23;20917;-87
2022/11/02 12:20:58;;;;;;;7.93;2.37;;;16.20;1.00;;;;;;6126503;22;20428;-87
2022/11/02 12:24:07;;;;;;;9.27;2.53;;;16.20;1.00;;;;;;6226079;22;20454;-86
2022/11/02 12:27:10;;;;;;;10.40;2.60;;;16.20;1.00;;;;;;6209692;22;20434;-85
2022/11/02 12:30:22;;;;;;;11.23;2.80;;;16.50;1.00;;;;;;6207905;22;20459;-86
2022/11/02 12:33:28;;;;;;;7.03;2.10;;;16.80;1.00;;;;;;6218235;22;20419;-85
2022/11/02 12:36:18;;;;;;;9.10;2.50;;;17.70;1.00;;;;;;6226077;22;20927;-82
2022/11/02 12:39:16;;;;;;;9.23;2.20;;;18.10;1.00;;;;;;6228687;22;20381;-86
2022/11/02 12:42:10;;;;;;;8.40;2.40;;;17.90;1.00;;;;;;6227436;22;20419;-83
2022/11/02 12:44:51;;;;;;;7.90;2.30;;;17.90;1.00;;;;;;6212375;22;20424;-83
2022/11/02 12:47:47;;;;;;;9.80;2.60;;;18.00;1.00;;;;;;6225616;22;20422;-81
2022/11/02 12:50:28;;;;;;;8.57;2.20;;;18.00;1.00;;;;;;6218535;22;20381;-87
2022/11/02 12:53:18;;;;;;;9.20;2.00;;;17.60;1.00;;;;;;6245124;22;20436;-87
2022/11/02 12:55:59;;;;;;;7.17;2.07;;;17.10;1.00;;;;;;6225911;22;20431;-82
2022/11/02 12:58:39;;;;;;;8.23;1.50;;;17.10;1.00;;;;;;6222706;22;20396;-82
2022/11/02 13:01:14;;;;;;;8.17;2.20;;;17.60;1.00;;;;;;6221969;22;20382;-84
2022/11/02 13:07:08;;;;;;;7.20;2.23;;;19.50;1.00;;;;;;6197664;22;20540;-82
2022/11/02 13:12:52;;;;;;;9.93;1.87;;;22.40;1.00;;;;;;6196876;22;20496;-84
2022/11/02 13:15:37;;;;;;;6.67;2.00;;;21.40;1.00;;;;;;6179421;23;20962;-83
2022/11/02 13:18:28;;;;;;;6.47;1.97;;;20.40;1.00;;;;;;6221981;22;20427;-82
2022/11/02 13:24:18;;;;;;;7.43;2.13;;;18.50;1.00;;;;;;6214482;22;20440;-84
2022/11/02 13:27:20;;;;;;;10.10;1.60;;;18.00;1.00;;;;;;6211471;22;20443;-83
2022/11/02 13:30:00;;;;;;;9.10;2.23;;;17.50;1.00;;;;;;6225158;22;20401;-83
2022/11/02 13:32:47;;;;;;;8.30;2.17;;;17.10;1.00;;;;;;6232502;22;20430;-87
2022/11/02 13:38:30;;;;;;;7.77;2.07;;;16.80;1.00;;;;;;6233940;22;20499;-88
2022/11/02 13:41:19;;;;;;;7.03;1.97;;;16.60;1.00;;;;;;6232397;22;20416;-87
2022/11/02 13:44:21;;;;;;;10.00;2.37;;;16.40;1.00;;;;;;6233235;22;20395;-86
2022/11/02 13:47:37;;;;;;;8.07;2.13;;;16.30;1.00;;;;;;6232896;22;20413;-86
2022/11/02 13:50:20;;;;;;;9.27;2.70;;;16.20;1.00;;;;;;6227475;22;21236;-81
2022/11/02 13:53:10;;;;;;;8.00;2.57;;;16.30;1.00;;;;;;6227276;22;20387;-82
2022/11/02 13:59:19;;;;;;;6.90;2.00;;;16.40;1.00;;;;;;6231304;22;20428;-83
2022/11/02 14:01:57;;;;;;;8.87;2.80;;;16.40;1.00;;;;;;6232422;22;20439;-87
2022/11/02 14:04:48;;;;;;;10.50;3.60;;;16.40;1.00;;;;;;6231426;22;20439;-88
2022/11/02 14:07:30;;;;;;;9.23;2.40;;;16.40;1.00;;;;;;6230604;22;20414;-81
2022/11/02 14:10:08;;;;;;;7.80;2.57;;;16.40;1.00;;;;;;6226788;22;20392;-81
2022/11/02 14:12:50;;;;;;;9.13;2.80;;;16.40;1.00;;;;;;6223910;22;20461;-81
2022/11/02 14:16:03;;;;;;;7.43;2.00;;;16.40;1.00;;;;;;6224300;22;20881;-80
2022/11/02 14:18:36;;;;;;;8.90;2.43;;;16.20;1.00;;;;;;6224240;22;20418;-79
2022/11/02 14:21:45;;;;;;;7.87;1.80;;;16.20;1.00;;;;;;6225750;22;20514;-79
2022/11/02 14:25:00;;;;;;;9.37;2.67;;;16.00;1.00;;;;;;6152894;22;20427;-78
2022/11/02 14:27:30;;;;;;;10.13;1.77;;;16.10;1.00;;;;;;6214927;22;20501;-80
2022/11/02 14:29:58;;;;;;;9.27;2.63;;;16.10;1.00;;;;;;6229854;22;21248;-81
2022/11/02 14:32:40;;;;;;;12.87;3.20;;;16.10;1.00;;;;;;6233355;22;20418;-82
2022/11/02 14:35:38;;;;;;;8.57;2.40;;;16.00;1.00;;;;;;6228868;22;20390;-81
2022/11/02 14:38:33;;;;;;;8.10;2.47;;;15.90;1.00;;;;;;6224289;22;20422;-81
2022/11/02 14:41:17;;;;;;;8.57;2.57;;;15.80;1.00;;;;;;6229213;22;20483;-79
2022/11/02 14:44:18;;;;;;;8.60;3.53;;;15.80;1.00;;;;;;6232254;22;20410;-82
2022/11/02 14:47:09;;;;;;;7.07;2.40;;;15.80;1.00;;;;;;6232338;22;20451;-81